Time;durP1;ratioP1;P1;durP2;ratioP2;P2;SDS_P1;SDS_P2;PMS_P1;PMS_P2;Temp;Humidity;BMP_temperature;BMP_pressure;BME280_temperature;BME280_humidity;BME280_pressure;Samples;Min_cycle;Max_cycle;Signal;HPM_P1;HPM_P2
2024/02/18 00:00:59;;;;;;;138.50;96.25;;;;;;;;;;5011152;28;20022;-60
2024/02/18 00:03:25;;;;;;;132.07;93.03;;;;;;;;;;5012353;28;20030;-59
2024/02/18 00:05:51;;;;;;;129.73;92.00;;;;;;;;;;5012215;28;20057;-60
2024/02/18 00:08:17;;;;;;;124.78;93.22;;;;;;;;;;5011819;28;20033;-60
2024/02/18 00:10:43;;;;;;;126.18;91.22;;;;;;;;;;5011729;28;20084;-60
2024/02/18 00:13:09;;;;;;;127.75;91.75;;;;;;;;;;5011621;28;20052;-60
2024/02/18 00:15:36;;;;;;;122.57;89.88;;;;;;;;;;5011424;28;20022;-60
2024/02/18 00:18:02;;;;;;;125.22;93.15;;;;;;;;;;5011437;28;20128;-60
2024/02/18 00:20:28;;;;;;;127.95;92.30;;;;;;;;;;5010055;28;20025;-60
2024/02/18 00:22:54;;;;;;;127.45;89.88;;;;;;;;;;5011740;28;20034;-60
2024/02/18 00:25:21;;;;;;;123.18;90.80;;;;;;;;;;5014206;28;20045;-60
2024/02/18 00:27:47;;;;;;;123.85;88.97;;;;;;;;;;5015200;28;20029;-60
2024/02/18 00:30:13;;;;;;;122.60;89.28;;;;;;;;;;5015390;28;20406;-61
2024/02/18 00:32:39;;;;;;;127.03;88.60;;;;;;;;;;5015311;28;20030;-60
2024/02/18 00:35:05;;;;;;;122.90;91.80;;;;;;;;;;5015244;28;20180;-60
2024/02/18 00:37:31;;;;;;;123.07;88.93;;;;;;;;;;5015132;28;20413;-60
2024/02/18 00:39:57;;;;;;;114.07;86.10;;;;;;;;;;5001566;28;20022;-60
2024/02/18 00:42:24;;;;;;;121.75;90.60;;;;;;;;;;5030171;28;20033;-61
2024/02/18 00:44:50;;;;;;;120.55;87.07;;;;;;;;;;5008375;28;20022;-60
2024/02/18 00:47:16;;;;;;;125.90;89.47;;;;;;;;;;5014989;28;20464;-60
2024/02/18 00:49:42;;;;;;;119.32;85.22;;;;;;;;;;5015119;28;20118;-60
2024/02/18 00:52:08;;;;;;;120.25;87.35;;;;;;;;;;5015277;28;20449;-60
2024/02/18 00:54:34;;;;;;;119.75;87.57;;;;;;;;;;5015125;28;20061;-60
2024/02/18 00:57:00;;;;;;;119.15;86.43;;;;;;;;;;5013488;28;20392;-60
2024/02/18 00:59:27;;;;;;;115.93;87.60;;;;;;;;;;5014695;28;20030;-60
2024/02/18 01:01:53;;;;;;;122.80;88.43;;;;;;;;;;5014741;28;20163;-60
2024/02/18 01:04:19;;;;;;;120.18;90.88;;;;;;;;;;5014677;28;20025;-60
2024/02/18 01:06:45;;;;;;;122.38;90.60;;;;;;;;;;5028998;28;20072;-60
2024/02/18 01:09:11;;;;;;;128.18;92.05;;;;;;;;;;5015007;28;20018;-60
2024/02/18 01:11:37;;;;;;;130.65;94.65;;;;;;;;;;5013545;28;20028;-60
2024/02/18 01:14:03;;;;;;;135.80;97.15;;;;;;;;;;5002142;28;20026;-60
2024/02/18 01:16:29;;;;;;;130.63;96.15;;;;;;;;;;5013336;28;20037;-60
2024/02/18 01:18:55;;;;;;;136.95;99.22;;;;;;;;;;5010380;28;20105;-61
2024/02/18 01:21:21;;;;;;;135.32;97.75;;;;;;;;;;5004654;28;20025;-60
2024/02/18 01:23:47;;;;;;;130.38;93.03;;;;;;;;;;5010759;28;20037;-61
2024/02/18 01:26:14;;;;;;;133.30;96.78;;;;;;;;;;5008401;28;20109;-60
2024/02/18 01:28:41;;;;;;;133.55;97.82;;;;;;;;;;5012301;28;20127;-59
2024/02/18 01:31:07;;;;;;;130.65;98.88;;;;;;;;;;5010261;28;20033;-58
2024/02/18 01:33:33;;;;;;;133.10;98.45;;;;;;;;;;5014016;28;20037;-58
2024/02/18 01:35:59;;;;;;;130.25;98.53;;;;;;;;;;5009215;28;20391;-59
2024/02/18 01:38:25;;;;;;;130.93;97.35;;;;;;;;;;5010722;28;20040;-59
2024/02/18 01:40:51;;;;;;;134.18;95.93;;;;;;;;;;5007969;28;20124;-59
2024/02/18 01:43:20;;;;;;;131.75;98.28;;;;;;;;;;5013653;28;20030;-59
2024/02/18 01:45:50;;;;;;;130.13;95.88;;;;;;;;;;5013820;28;20036;-59
2024/02/18 01:58:26;;;;;;;126.18;89.13;;;;;;;;;;4977176;28;20171;-59
2024/02/18 02:00:52;;;;;;;123.95;90.00;;;;;;;;;;5000751;28;20069;-60
2024/02/18 02:03:19;;;;;;;127.22;93.88;;;;;;;;;;5012570;28;20164;-59
2024/02/18 02:05:46;;;;;;;123.47;92.25;;;;;;;;;;5012474;28;20022;-60
2024/02/18 02:08:12;;;;;;;121.93;89.75;;;;;;;;;;5011753;28;20140;-59
2024/02/18 02:10:38;;;;;;;116.63;88.25;;;;;;;;;;5011919;28;20034;-59
2024/02/18 02:13:05;;;;;;;118.97;90.03;;;;;;;;;;5011625;28;20344;-59
2024/02/18 02:15:31;;;;;;;121.53;90.50;;;;;;;;;;5010229;28;20026;-59
2024/02/18 02:17:57;;;;;;;115.80;89.22;;;;;;;;;;4994418;28;20030;-59
2024/02/18 02:20:23;;;;;;;112.70;86.93;;;;;;;;;;5011909;28;20125;-59
2024/02/18 02:22:49;;;;;;;115.45;89.45;;;;;;;;;;5012041;28;20037;-59
2024/02/18 02:25:15;;;;;;;114.25;86.70;;;;;;;;;;5011972;28;20026;-59
2024/02/18 02:27:42;;;;;;;116.88;87.72;;;;;;;;;;5012100;28;20045;-59
2024/02/18 02:30:08;;;;;;;118.35;87.22;;;;;;;;;;5012103;28;20537;-60
2024/02/18 02:32:35;;;;;;;114.88;86.82;;;;;;;;;;5003907;28;20030;-60
2024/02/18 02:35:02;;;;;;;112.80;86.00;;;;;;;;;;5024511;28;20026;-60
2024/02/18 02:37:29;;;;;;;116.63;84.55;;;;;;;;;;5012030;28;20045;-60
2024/02/18 02:39:55;;;;;;;113.68;85.53;;;;;;;;;;5012310;28;20120;-60
2024/02/18 02:42:21;;;;;;;114.50;85.30;;;;;;;;;;5012088;28;20388;-59
2024/02/18 02:44:47;;;;;;;118.40;86.38;;;;;;;;;;5012062;28;20022;-59
2024/02/18 02:47:13;;;;;;;109.05;83.07;;;;;;;;;;5006706;28;20125;-59
2024/02/18 02:49:39;;;;;;;109.68;83.65;;;;;;;;;;5010090;28;20022;-60
2024/02/18 02:52:05;;;;;;;110.60;82.68;;;;;;;;;;5011260;28;20026;-59
2024/02/18 02:54:31;;;;;;;114.05;83.32;;;;;;;;;;5011223;28;20021;-59
2024/02/18 02:56:57;;;;;;;116.30;85.97;;;;;;;;;;5011213;28;20029;-60
2024/02/18 02:59:23;;;;;;;108.72;83.35;;;;;;;;;;4947509;28;1569068;-59
2024/02/18 03:01:50;;;;;;;115.03;85.57;;;;;;;;;;5012416;28;20334;-60
2024/02/18 03:04:16;;;;;;;111.45;81.20;;;;;;;;;;5004629;28;20034;-60
2024/02/18 03:06:42;;;;;;;114.82;84.63;;;;;;;;;;5012579;28;20030;-59
2024/02/18 03:09:08;;;;;;;107.60;82.32;;;;;;;;;;5012165;28;20052;-59
2024/02/18 03:11:34;;;;;;;106.45;83.43;;;;;;;;;;5011301;28;20030;-59
2024/02/18 03:14:00;;;;;;;125.20;88.40;;;;;;;;;;5012513;28;20057;-59
2024/02/18 03:16:26;;;;;;;120.97;88.63;;;;;;;;;;5012367;28;20527;-60
2024/02/18 03:18:52;;;;;;;119.88;87.53;;;;;;;;;;5010898;28;20033;-59
2024/02/18 03:21:18;;;;;;;120.78;87.72;;;;;;;;;;5003525;28;20076;-60
2024/02/18 03:23:44;;;;;;;126.20;92.10;;;;;;;;;;4998279;28;20502;-60
2024/02/18 03:26:10;;;;;;;126.63;91.65;;;;;;;;;;5011978;28;20025;-59
2024/02/18 03:28:36;;;;;;;126.25;92.95;;;;;;;;;;5011716;28;20044;-59
2024/02/18 03:31:02;;;;;;;126.03;95.28;;;;;;;;;;5011944;28;20030;-59
2024/02/18 03:33:28;;;;;;;135.57;96.82;;;;;;;;;;5011288;28;20044;-60
2024/02/18 03:35:54;;;;;;;134.57;97.22;;;;;;;;;;5011798;28;20101;-60
2024/02/18 03:38:20;;;;;;;135.55;97.20;;;;;;;;;;5012332;28;20383;-60
2024/02/18 03:40:46;;;;;;;136.00;96.50;;;;;;;;;;5012174;28;20022;-59
2024/02/18 03:43:12;;;;;;;130.40;94.97;;;;;;;;;;5012144;28;20026;-59
2024/02/18 03:45:38;;;;;;;135.25;95.85;;;;;;;;;;5012035;28;20548;-60
2024/02/18 03:48:04;;;;;;;136.32;98.30;;;;;;;;;;4997900;28;20034;-60
2024/02/18 03:50:30;;;;;;;130.40;95.22;;;;;;;;;;5026668;28;20093;-59
2024/02/18 03:52:56;;;;;;;132.48;95.38;;;;;;;;;;5000203;28;20030;-60
2024/02/18 03:55:23;;;;;;;135.43;94.13;;;;;;;;;;5009018;28;20100;-60
2024/02/18 03:57:49;;;;;;;132.20;96.85;;;;;;;;;;5002691;28;20147;-60
2024/02/18 04:00:15;;;;;;;134.65;99.15;;;;;;;;;;5011182;28;20052;-60
2024/02/18 04:02:42;;;;;;;137.77;99.00;;;;;;;;;;5011403;28;20044;-60
2024/02/18 04:05:12;;;;;;;129.50;99.10;;;;;;;;;;5011187;28;20306;-59
2024/02/18 04:07:38;;;;;;;139.73;100.28;;;;;;;;;;5003946;28;20495;-60
2024/02/18 04:10:05;;;;;;;132.75;100.07;;;;;;;;;;5011111;28;20088;-59
2024/02/18 04:12:31;;;;;;;130.40;99.03;;;;;;;;;;4996380;28;20464;-59
2024/02/18 04:14:57;;;;;;;139.60;101.45;;;;;;;;;;5008485;28;20022;-60
2024/02/18 04:17:25;;;;;;;138.45;98.95;;;;;;;;;;5006003;28;20090;-60
2024/02/18 04:19:51;;;;;;;137.18;99.13;;;;;;;;;;5010682;28;20022;-60
2024/02/18 04:22:17;;;;;;;141.85;103.10;;;;;;;;;;5010987;28;20033;-60
2024/02/18 04:24:43;;;;;;;136.95;101.82;;;;;;;;;;5011755;28;20473;-60
2024/02/18 04:27:09;;;;;;;136.90;98.18;;;;;;;;;;5011225;28;20116;-60
2024/02/18 04:29:38;;;;;;;137.57;98.18;;;;;;;;;;5010730;28;20527;-61
2024/02/18 04:32:05;;;;;;;136.55;99.18;;;;;;;;;;5011385;28;20030;-60
2024/02/18 04:34:31;;;;;;;131.15;98.05;;;;;;;;;;5025250;28;20033;-60
2024/02/18 04:36:57;;;;;;;131.95;96.45;;;;;;;;;;5010955;28;20388;-60
2024/02/18 04:39:23;;;;;;;136.35;99.35;;;;;;;;;;5011241;28;20037;-60
2024/02/18 04:41:49;;;;;;;131.82;98.47;;;;;;;;;;5012277;28;20424;-60
2024/02/18 04:44:15;;;;;;;133.52;97.75;;;;;;;;;;5000150;28;20054;-60
2024/02/18 04:46:42;;;;;;;128.23;95.55;;;;;;;;;;5008705;28;20041;-60
2024/02/18 04:49:08;;;;;;;124.00;91.63;;;;;;;;;;5011225;28;20495;-60
2024/02/18 04:51:34;;;;;;;128.48;93.22;;;;;;;;;;5007916;28;20038;-60
2024/02/18 04:54:00;;;;;;;131.73;92.20;;;;;;;;;;5010077;28;20121;-60
2024/02/18 04:56:26;;;;;;;113.13;90.03;;;;;;;;;;5007815;28;20034;-60
2024/02/18 04:58:51;;;;;;;124.82;90.78;;;;;;;;;;5007606;28;20052;-60
2024/02/18 05:01:18;;;;;;;126.15;89.68;;;;;;;;;;5008692;28;20108;-60
2024/02/18 05:03:44;;;;;;;118.43;88.78;;;;;;;;;;5010789;28;20108;-60
2024/02/18 05:06:10;;;;;;;120.15;85.95;;;;;;;;;;5009079;28;20165;-60
2024/02/18 05:08:36;;;;;;;116.28;89.80;;;;;;;;;;5010600;28;20599;-60
2024/02/18 05:11:03;;;;;;;117.47;88.05;;;;;;;;;;5012503;28;20496;-60
2024/02/18 05:13:29;;;;;;;118.90;85.15;;;;;;;;;;5014255;28;20112;-59
2024/02/18 05:15:56;;;;;;;131.80;96.00;;;;;;;;;;5013155;28;20018;-60
2024/02/18 05:18:22;;;;;;;124.50;92.65;;;;;;;;;;5014605;28;20452;-59
2024/02/18 05:20:48;;;;;;;123.90;89.53;;;;;;;;;;5014699;28;20406;-60
2024/02/18 05:23:14;;;;;;;125.63;95.95;;;;;;;;;;5014294;28;20036;-60
2024/02/18 05:25:40;;;;;;;129.85;91.95;;;;;;;;;;5014054;28;20038;-60
2024/02/18 05:28:07;;;;;;;129.77;93.43;;;;;;;;;;5014408;28;20427;-60
2024/02/18 05:30:33;;;;;;;127.57;94.63;;;;;;;;;;5014295;28;20085;-60
2024/02/18 05:32:58;;;;;;;131.27;95.00;;;;;;;;;;5014138;28;20033;-60
2024/02/18 05:35:24;;;;;;;131.05;91.65;;;;;;;;;;5013668;28;20336;-60
2024/02/18 05:37:51;;;;;;;124.55;93.28;;;;;;;;;;5011285;28;20022;-60
2024/02/18 05:40:17;;;;;;;125.82;91.72;;;;;;;;;;5007107;28;20077;-59
2024/02/18 05:42:43;;;;;;;128.60;93.28;;;;;;;;;;5008438;28;20025;-60
2024/02/18 05:45:09;;;;;;;130.07;93.93;;;;;;;;;;5003762;28;20030;-59
2024/02/18 05:47:35;;;;;;;125.10;93.88;;;;;;;;;;5008357;28;20042;-61
2024/02/18 05:50:01;;;;;;;132.20;95.72;;;;;;;;;;5008829;28;20352;-60
2024/02/18 05:52:27;;;;;;;127.88;92.30;;;;;;;;;;5007884;28;20038;-61
2024/02/18 05:54:53;;;;;;;126.05;93.70;;;;;;;;;;5007808;28;20038;-60
2024/02/18 05:57:19;;;;;;;132.05;94.28;;;;;;;;;;5011689;28;20431;-60
2024/02/18 05:59:45;;;;;;;130.65;94.28;;;;;;;;;;5013196;28;20076;-59
2024/02/18 06:02:12;;;;;;;131.13;91.85;;;;;;;;;;5004819;28;20050;-60
2024/02/18 06:04:38;;;;;;;132.35;95.55;;;;;;;;;;5028437;28;20122;-59
2024/02/18 06:07:04;;;;;;;126.70;91.72;;;;;;;;;;5013265;28;20113;-59
2024/02/18 06:09:30;;;;;;;130.48;91.13;;;;;;;;;;5013377;28;20022;-59
2024/02/18 06:11:56;;;;;;;132.15;93.00;;;;;;;;;;5013196;28;20034;-59
2024/02/18 06:14:22;;;;;;;129.18;93.43;;;;;;;;;;5013391;28;20076;-60
2024/02/18 06:16:48;;;;;;;130.00;96.00;;;;;;;;;;5014189;28;20030;-60
2024/02/18 06:19:14;;;;;;;125.88;91.70;;;;;;;;;;5013219;28;20445;-60
2024/02/18 06:21:40;;;;;;;122.60;91.28;;;;;;;;;;5012466;28;20032;-60
2024/02/18 06:24:06;;;;;;;136.27;95.07;;;;;;;;;;5012615;28;20037;-60
2024/02/18 06:26:32;;;;;;;130.50;94.95;;;;;;;;;;5011717;28;20029;-60
2024/02/18 06:28:58;;;;;;;128.45;92.93;;;;;;;;;;5012792;28;20038;-60
2024/02/18 06:31:24;;;;;;;132.70;92.45;;;;;;;;;;5012764;28;20089;-60
2024/02/18 06:33:50;;;;;;;131.02;93.82;;;;;;;;;;5002323;28;20113;-60
2024/02/18 06:36:16;;;;;;;126.63;91.32;;;;;;;;;;5009701;28;20064;-60
2024/02/18 06:38:42;;;;;;;131.95;93.50;;;;;;;;;;5011505;28;20092;-60
2024/02/18 06:41:09;;;;;;;128.90;95.28;;;;;;;;;;5012910;28;20076;-60
2024/02/18 06:43:35;;;;;;;129.00;95.82;;;;;;;;;;5012512;28;20026;-60
2024/02/18 06:46:01;;;;;;;132.73;96.05;;;;;;;;;;5012594;28;20076;-60
2024/02/18 06:48:42;;;;;;;131.68;91.25;;;;;;;;;;5011348;28;20518;-60
2024/02/18 06:51:08;;;;;;;126.93;92.13;;;;;;;;;;5010259;28;20032;-60
2024/02/18 06:53:34;;;;;;;128.00;89.45;;;;;;;;;;5012462;28;20022;-60
2024/02/18 06:56:00;;;;;;;120.93;92.13;;;;;;;;;;5012519;28;20379;-60
2024/02/18 06:58:26;;;;;;;131.73;93.72;;;;;;;;;;5012679;28;20033;-60
2024/02/18 07:00:52;;;;;;;129.40;96.28;;;;;;;;;;5011814;28;20132;-60
2024/02/18 07:03:18;;;;;;;129.73;92.57;;;;;;;;;;5012030;28;20491;-60
2024/02/18 07:05:44;;;;;;;132.30;96.78;;;;;;;;;;5012352;28;20021;-60
2024/02/18 07:08:10;;;;;;;129.85;91.85;;;;;;;;;;5012234;28;20038;-60
2024/02/18 07:10:36;;;;;;;133.00;95.90;;;;;;;;;;5011032;28;20112;-60
2024/02/18 07:13:02;;;;;;;137.82;95.95;;;;;;;;;;5012410;28;20179;-60
2024/02/18 07:15:29;;;;;;;129.00;91.72;;;;;;;;;;5008584;28;20025;-60
2024/02/18 07:17:55;;;;;;;127.15;93.00;;;;;;;;;;5015295;28;20471;-60
2024/02/18 07:20:21;;;;;;;131.60;95.22;;;;;;;;;;5014651;28;20400;-60
2024/02/18 07:22:47;;;;;;;131.13;93.32;;;;;;;;;;5011476;28;20022;-60
2024/02/18 07:25:13;;;;;;;128.88;91.13;;;;;;;;;;5011157;28;20064;-59
2024/02/18 07:27:39;;;;;;;126.10;91.93;;;;;;;;;;5011277;28;20044;-60
2024/02/18 07:30:05;;;;;;;135.43;95.50;;;;;;;;;;5008280;28;20463;-60
2024/02/18 07:32:31;;;;;;;132.68;96.68;;;;;;;;;;5004187;28;20036;-60
2024/02/18 07:34:57;;;;;;;129.35;95.90;;;;;;;;;;5008683;28;20026;-60
2024/02/18 07:37:23;;;;;;;135.23;100.70;;;;;;;;;;5008530;28;20026;-60
2024/02/18 07:39:49;;;;;;;131.52;97.35;;;;;;;;;;5010881;28;20021;-60
2024/02/18 07:42:15;;;;;;;128.65;93.50;;;;;;;;;;5010853;28;20021;-60
2024/02/18 07:44:47;;;;;;;133.82;97.18;;;;;;;;;;5006169;28;20112;-60
2024/02/18 07:47:13;;;;;;;127.90;93.22;;;;;;;;;;5006498;28;20038;-60
2024/02/18 07:49:39;;;;;;;132.02;95.45;;;;;;;;;;5012749;28;20044;-60
2024/02/18 07:52:06;;;;;;;128.32;96.82;;;;;;;;;;5011768;28;20029;-60
2024/02/18 07:54:32;;;;;;;128.75;95.22;;;;;;;;;;5007734;28;20050;-60
2024/02/18 07:56:58;;;;;;;126.93;92.55;;;;;;;;;;5008215;28;20057;-60
2024/02/18 07:59:24;;;;;;;129.98;93.55;;;;;;;;;;5017402;28;20925;-60
2024/02/18 08:01:50;;;;;;;134.23;98.25;;;;;;;;;;5017888;28;20030;-60
2024/02/18 08:04:16;;;;;;;135.27;97.30;;;;;;;;;;5005936;28;20030;-60
2024/02/18 08:06:42;;;;;;;132.57;96.47;;;;;;;;;;5010644;28;20041;-60
2024/02/18 08:09:08;;;;;;;135.45;96.53;;;;;;;;;;5007931;28;20033;-60
2024/02/18 08:11:35;;;;;;;130.55;95.32;;;;;;;;;;5006012;28;20072;-60
2024/02/18 08:14:01;;;;;;;132.48;95.28;;;;;;;;;;4999041;28;20033;-60
2024/02/18 08:16:28;;;;;;;132.23;97.55;;;;;;;;;;5011354;28;20113;-60
2024/02/18 08:18:54;;;;;;;141.73;101.45;;;;;;;;;;5011526;28;20033;-61
2024/02/18 08:21:20;;;;;;;132.77;97.88;;;;;;;;;;5011685;28;20033;-61
2024/02/18 08:23:46;;;;;;;140.23;100.38;;;;;;;;;;5011348;28;20447;-60
2024/02/18 08:26:22;;;;;;;130.27;96.20;;;;;;;;;;5011399;28;20038;-61
2024/02/18 08:28:48;;;;;;;134.25;98.60;;;;;;;;;;5011259;28;20064;-61
2024/02/18 08:31:15;;;;;;;129.43;95.80;;;;;;;;;;5011569;28;20105;-60
2024/02/18 08:33:41;;;;;;;137.80;100.80;;;;;;;;;;5011499;28;20034;-60
2024/02/18 08:36:07;;;;;;;136.60;99.78;;;;;;;;;;5011249;28;20166;-60
2024/02/18 08:38:33;;;;;;;132.27;98.78;;;;;;;;;;5011457;28;20022;-60
2024/02/18 08:40:59;;;;;;;130.48;99.20;;;;;;;;;;5011594;28;20096;-60
2024/02/18 08:43:25;;;;;;;136.48;103.05;;;;;;;;;;5010016;28;20102;-61
2024/02/18 08:45:51;;;;;;;142.10;104.03;;;;;;;;;;5012500;28;20046;-60
2024/02/18 08:48:17;;;;;;;140.23;102.10;;;;;;;;;;5015423;28;20038;-61
2024/02/18 08:50:43;;;;;;;143.82;104.50;;;;;;;;;;5015000;28;20022;-60
2024/02/18 08:53:09;;;;;;;136.90;100.13;;;;;;;;;;5015098;28;20100;-61
2024/02/18 08:55:36;;;;;;;137.75;100.78;;;;;;;;;;5015068;28;20407;-60
2024/02/18 08:58:02;;;;;;;139.77;102.75;;;;;;;;;;5013490;28;20404;-61
2024/02/18 09:00:28;;;;;;;135.25;101.72;;;;;;;;;;5014649;28;20061;-60
2024/02/18 09:02:55;;;;;;;139.23;103.28;;;;;;;;;;5014797;28;20025;-60
2024/02/18 09:05:22;;;;;;;137.90;101.63;;;;;;;;;;5014560;28;20056;-61
2024/02/18 09:07:48;;;;;;;145.05;104.93;;;;;;;;;;5014662;28;20030;-60
2024/02/18 09:10:15;;;;;;;145.73;106.70;;;;;;;;;;5014559;28;20092;-61
2024/02/18 09:12:41;;;;;;;156.70;111.38;;;;;;;;;;5014929;28;20029;-60
2024/02/18 09:15:09;;;;;;;149.00;107.75;;;;;;;;;;5014826;28;20030;-61
2024/02/18 09:17:35;;;;;;;148.23;110.28;;;;;;;;;;5014759;28;20030;-60
2024/02/18 09:20:01;;;;;;;145.55;108.07;;;;;;;;;;5014807;28;20026;-61
2024/02/18 09:22:27;;;;;;;142.98;109.25;;;;;;;;;;5000958;28;20021;-61
2024/02/18 09:24:53;;;;;;;148.90;111.05;;;;;;;;;;5014472;28;20037;-61
2024/02/18 09:27:19;;;;;;;145.63;108.47;;;;;;;;;;5014432;28;20030;-61
2024/02/18 09:29:45;;;;;;;144.13;107.03;;;;;;;;;;5014654;28;20419;-61
2024/02/18 09:32:11;;;;;;;143.73;105.68;;;;;;;;;;5014625;28;20333;-61
2024/02/18 09:34:37;;;;;;;145.95;108.63;;;;;;;;;;5014311;28;20085;-60
2024/02/18 09:37:04;;;;;;;149.23;110.95;;;;;;;;;;5014400;28;20022;-61
2024/02/18 09:39:30;;;;;;;150.52;110.63;;;;;;;;;;5014325;28;20352;-61
2024/02/18 09:41:58;;;;;;;149.70;111.25;;;;;;;;;;5014329;28;20076;-62
2024/02/18 09:44:26;;;;;;;146.57;106.47;;;;;;;;;;5014216;28;20022;-61
2024/02/18 09:46:53;;;;;;;140.48;104.28;;;;;;;;;;5014055;28;20041;-61
2024/02/18 09:49:19;;;;;;;134.88;103.00;;;;;;;;;;5013964;28;20096;-61
2024/02/18 09:51:45;;;;;;;145.13;106.90;;;;;;;;;;5012760;28;20045;-61
2024/02/18 09:54:11;;;;;;;141.77;104.38;;;;;;;;;;5013854;28;20468;-61
2024/02/18 09:56:37;;;;;;;136.80;103.63;;;;;;;;;;5013514;28;20018;-61
2024/02/18 09:59:03;;;;;;;137.25;103.55;;;;;;;;;;5013712;28;20038;-61
2024/02/18 10:01:31;;;;;;;135.27;101.75;;;;;;;;;;5013779;28;20477;-61
2024/02/18 10:03:57;;;;;;;140.32;105.40;;;;;;;;;;5010808;28;20108;-62
2024/02/18 10:06:23;;;;;;;131.93;103.18;;;;;;;;;;5024106;28;20141;-61
2024/02/18 10:08:52;;;;;;;139.50;105.97;;;;;;;;;;5010282;28;20046;-60
2024/02/18 10:11:20;;;;;;;141.32;105.90;;;;;;;;;;5007983;28;20029;-61
2024/02/18 10:13:47;;;;;;;137.25;103.15;;;;;;;;;;5012827;28;20023;-61
2024/02/18 10:16:12;;;;;;;140.90;106.03;;;;;;;;;;5010348;28;20080;-61
2024/02/18 10:18:38;;;;;;;136.45;106.40;;;;;;;;;;5012427;28;20034;-61
2024/02/18 10:21:05;;;;;;;138.13;106.03;;;;;;;;;;5013585;28;20030;-61
2024/02/18 10:23:31;;;;;;;139.63;105.97;;;;;;;;;;5013712;28;20045;-61
2024/02/18 10:25:59;;;;;;;137.45;104.65;;;;;;;;;;5011997;28;20104;-61
2024/02/18 10:28:27;;;;;;;141.23;105.45;;;;;;;;;;5013480;28;20065;-61
2024/02/18 10:30:53;;;;;;;145.32;109.05;;;;;;;;;;5011746;28;20411;-61
2024/02/18 10:33:19;;;;;;;146.43;109.18;;;;;;;;;;5011949;28;20339;-61
2024/02/18 10:35:48;;;;;;;143.88;108.60;;;;;;;;;;5013072;28;20431;-61
2024/02/18 10:38:20;;;;;;;147.85;110.28;;;;;;;;;;5013240;28;20026;-61
2024/02/18 10:40:48;;;;;;;145.88;111.03;;;;;;;;;;5013147;28;20041;-61
2024/02/18 10:43:18;;;;;;;143.18;109.10;;;;;;;;;;5013475;28;20057;-61
2024/02/18 10:45:45;;;;;;;153.20;112.95;;;;;;;;;;5011750;28;20030;-61
2024/02/18 10:48:12;;;;;;;149.88;110.95;;;;;;;;;;5013288;28;20046;-61
2024/02/18 10:50:40;;;;;;;152.00;115.15;;;;;;;;;;5012960;28;20022;-62
2024/02/18 10:53:06;;;;;;;148.05;110.82;;;;;;;;;;5012755;28;20018;-61
2024/02/18 10:55:52;;;;;;;148.05;110.28;;;;;;;;;;5013175;28;20116;-61
2024/02/18 10:58:22;;;;;;;153.45;113.05;;;;;;;;;;5012644;28;20095;-61
2024/02/18 11:00:51;;;;;;;146.90;111.95;;;;;;;;;;5012859;28;20114;-62
2024/02/18 11:03:29;;;;;;;148.77;112.15;;;;;;;;;;5012617;28;20395;-62
2024/02/18 11:05:58;;;;;;;146.45;110.97;;;;;;;;;;5012655;28;20094;-61
2024/02/18 11:08:28;;;;;;;152.88;113.72;;;;;;;;;;5011773;28;20045;-62
2024/02/18 11:10:54;;;;;;;150.50;109.70;;;;;;;;;;5012974;28;20357;-61
2024/02/18 11:13:21;;;;;;;146.80;111.55;;;;;;;;;;5012682;28;20105;-61
2024/02/18 11:15:47;;;;;;;155.07;115.88;;;;;;;;;;5012663;28;20033;-61
2024/02/18 11:18:14;;;;;;;149.90;111.45;;;;;;;;;;5012566;28;20030;-61
2024/02/18 11:20:40;;;;;;;155.23;116.35;;;;;;;;;;5013032;28;20364;-61
2024/02/18 11:23:06;;;;;;;150.65;113.80;;;;;;;;;;5012512;28;20462;-61
2024/02/18 11:25:32;;;;;;;148.48;112.78;;;;;;;;;;5011048;28;20038;-61
2024/02/18 11:27:58;;;;;;;154.27;115.65;;;;;;;;;;5027288;28;20464;-61
2024/02/18 11:30:24;;;;;;;150.80;114.07;;;;;;;;;;5012099;28;20026;-61
2024/02/18 11:32:50;;;;;;;152.30;114.45;;;;;;;;;;5011026;28;20029;-61
2024/02/18 11:35:18;;;;;;;147.35;113.50;;;;;;;;;;5012071;28;20062;-61
2024/02/18 11:37:44;;;;;;;152.52;114.07;;;;;;;;;;5010410;28;20435;-62
2024/02/18 11:40:11;;;;;;;155.98;115.95;;;;;;;;;;4999012;28;20046;-61
2024/02/18 11:42:38;;;;;;;156.75;114.45;;;;;;;;;;5000335;28;20037;-61
2024/02/18 11:45:30;;;;;;;156.75;114.63;;;;;;;;;;5008752;28;20340;-61
2024/02/18 11:47:57;;;;;;;151.63;114.07;;;;;;;;;;5010213;28;20053;-61
2024/02/18 11:50:23;;;;;;;152.18;112.65;;;;;;;;;;5011751;28;20137;-61
2024/02/18 11:52:56;;;;;;;154.27;114.60;;;;;;;;;;5011943;28;20037;-62
2024/02/18 11:55:26;;;;;;;149.02;112.90;;;;;;;;;;5011939;28;20037;-58
2024/02/18 11:57:52;;;;;;;155.65;113.65;;;;;;;;;;5011576;28;20080;-60
2024/02/18 12:00:19;;;;;;;149.95;114.93;;;;;;;;;;5010806;28;20069;-60
2024/02/18 12:02:55;;;;;;;145.90;111.15;;;;;;;;;;5010860;28;20061;-57
2024/02/18 12:05:22;;;;;;;145.70;113.63;;;;;;;;;;5002989;28;20306;-58
2024/02/18 12:07:49;;;;;;;150.40;113.30;;;;;;;;;;5011601;28;20033;-56
2024/02/18 12:10:17;;;;;;;150.55;111.78;;;;;;;;;;5011761;28;20041;-57
2024/02/18 12:12:43;;;;;;;149.75;112.03;;;;;;;;;;5012081;28;20018;-55
2024/02/18 12:15:10;;;;;;;150.70;112.88;;;;;;;;;;5011984;28;20083;-57
2024/02/18 12:17:36;;;;;;;147.02;111.18;;;;;;;;;;5011733;28;20030;-58
2024/02/18 12:20:06;;;;;;;140.10;107.47;;;;;;;;;;4999869;28;20084;-58
2024/02/18 12:22:32;;;;;;;150.60;113.00;;;;;;;;;;5014603;28;20029;-59
2024/02/18 12:24:59;;;;;;;150.23;112.32;;;;;;;;;;5016117;28;20416;-59
2024/02/18 12:27:25;;;;;;;144.07;108.68;;;;;;;;;;5015533;28;20080;-59
2024/02/18 12:29:51;;;;;;;154.45;113.45;;;;;;;;;;5015768;28;20325;-59
2024/02/18 12:32:18;;;;;;;149.13;111.97;;;;;;;;;;5015661;28;20030;-59
2024/02/18 12:34:45;;;;;;;141.25;110.40;;;;;;;;;;5015585;28;20054;-59
2024/02/18 12:37:11;;;;;;;147.60;111.45;;;;;;;;;;5015380;28;20034;-58
2024/02/18 12:39:38;;;;;;;145.20;110.75;;;;;;;;;;5015645;28;20030;-58
2024/02/18 12:42:04;;;;;;;146.25;110.63;;;;;;;;;;5015410;28;20391;-56
2024/02/18 12:44:32;;;;;;;145.73;112.18;;;;;;;;;;5015424;28;20030;-57
2024/02/18 12:47:01;;;;;;;142.20;108.35;;;;;;;;;;5015496;28;20049;-59
2024/02/18 12:49:28;;;;;;;140.88;107.15;;;;;;;;;;5015209;28;20460;-58
2024/02/18 12:52:02;;;;;;;145.13;112.38;;;;;;;;;;5015227;28;20033;-59
2024/02/18 12:54:28;;;;;;;142.75;110.93;;;;;;;;;;5016561;28;20152;-57
2024/02/18 12:56:54;;;;;;;151.00;115.10;;;;;;;;;;5027431;28;20022;-57
2024/02/18 12:59:20;;;;;;;145.40;110.82;;;;;;;;;;5014804;28;20133;-57
2024/02/18 13:01:46;;;;;;;149.23;112.35;;;;;;;;;;5015116;28;20014;-57
2024/02/18 13:04:12;;;;;;;144.88;111.47;;;;;;;;;;5014866;28;20482;-57
2024/02/18 13:06:39;;;;;;;148.93;112.72;;;;;;;;;;5014807;28;20101;-57
2024/02/18 13:09:05;;;;;;;145.10;109.18;;;;;;;;;;5015001;28;20121;-59
2024/02/18 13:11:32;;;;;;;145.57;108.47;;;;;;;;;;5014790;28;20029;-58
2024/02/18 13:13:59;;;;;;;144.32;109.68;;;;;;;;;;5015491;28;20105;-58
2024/02/18 13:16:25;;;;;;;139.82;107.80;;;;;;;;;;5014865;28;20487;-58
2024/02/18 13:18:51;;;;;;;144.82;110.03;;;;;;;;;;5014917;28;20376;-58
2024/02/18 13:21:17;;;;;;;141.50;110.00;;;;;;;;;;5014729;28;20030;-58
2024/02/18 13:23:43;;;;;;;141.80;108.35;;;;;;;;;;5014653;28;20037;-58
2024/02/18 13:26:09;;;;;;;145.18;110.32;;;;;;;;;;5014541;28;20096;-58
2024/02/18 13:28:36;;;;;;;140.32;108.47;;;;;;;;;;5014425;28;20116;-59
2024/02/18 13:31:03;;;;;;;141.00;107.40;;;;;;;;;;5013968;28;20113;-58
2024/02/18 13:33:29;;;;;;;136.70;106.22;;;;;;;;;;5014400;28;20162;-57
2024/02/18 13:35:58;;;;;;;140.52;109.05;;;;;;;;;;5014183;28;20022;-58
2024/02/18 13:38:24;;;;;;;141.55;107.85;;;;;;;;;;5014447;28;20030;-57
2024/02/18 13:40:50;;;;;;;145.32;106.45;;;;;;;;;;5014371;28;20018;-58
2024/02/18 13:43:17;;;;;;;133.85;103.53;;;;;;;;;;5014425;28;20113;-56
2024/02/18 13:45:43;;;;;;;141.32;108.13;;;;;;;;;;5014270;28;20097;-58
2024/02/18 13:48:09;;;;;;;139.43;106.10;;;;;;;;;;5014171;28;20120;-59
2024/02/18 13:50:35;;;;;;;139.38;108.60;;;;;;;;;;5014017;28;20026;-58
2024/02/18 13:53:03;;;;;;;142.23;109.60;;;;;;;;;;5014313;28;20021;-57
2024/02/18 13:55:29;;;;;;;142.30;108.53;;;;;;;;;;5014030;28;20085;-59
2024/02/18 13:57:58;;;;;;;146.65;110.47;;;;;;;;;;5013854;28;20093;-59
2024/02/18 14:00:24;;;;;;;145.30;110.68;;;;;;;;;;5013861;28;20089;-58
2024/02/18 14:02:50;;;;;;;138.77;107.63;;;;;;;;;;5013929;28;20053;-58
2024/02/18 14:05:19;;;;;;;143.13;110.18;;;;;;;;;;5013760;28;20088;-58